River, KY (41254)

9:26 AM EDT on March 29, 2015 (GMT -0400)
Big Sandy Reg AP, Prestonsbur | | Change Station
CLOSE
Current Station
Airport
Location: Big Sandy Reg AP, Prestonsbur,
Elevation: 1220 ft
Nearby Weather Stations

Elev 1220 ft 37.75 °N, 82.64 °W | Updated 11 minutes ago

Clear
Clear
29 °F
Feels Like 22 °F
N
8
Wind Variable Wind from SSE

Today
High -- | Low -- °F
--% Chance of Precip.
Yesterday
High -- | Low -- °F
Precip. -- in
7:20 AM 7:50 PM
Waxing Gibbous, 71% visible
Pressure 30.37 in
Visibility 10.0 miles
Clouds Clear
Windchill 22 °F
Dew Point 15 °F
Humidity 55%
Rainfall 0.00 in
Snow Depth Not available.
UV 2 out of 12
Pollen 8.20 out of 12
Air Quality Not available.
Flu Activity Not available.
METAR KSJS 291315Z AUTO 15007KT 10SM CLR M01/M09 A3037 RMK AO2 T10151095

More Conditions Fewer Conditions

Pressure 30.37 in
Visibility 10.0 miles
Clouds Clear
Windchill 22 °F
Dew Point 15 °F
Humidity 55%
Rainfall 0.00 in
Snow Depth Not available.
UV 2 out of 12
Pollen 8.20 out of 12
Air Quality Not available.
Flu Activity Not available.
METAR KSJS 291315Z AUTO 15007KT 10SM CLR M01/M09 A3037 RMK AO2 T10151095

More Conditions Fewer Conditions

10-Day Weather Forecast

Almanac

Astronomy

Mar. 29, 2015 Rise Set
Actual Time
Civil Twilight
Nautical Twilight
Astronomical Twilight
Moon
Length of Visible Light
Length of Day
Tomorrow will be .
, % of the Moon is Illuminated

Today's Extremes

State Highs State Lows

Community

WunderPhotos

Upload Photos

1,809,233 photos uploaded!

WunderBlogs® & News

Nearby

Air Quality

  Air Quality AQ Index Pollutant
Not available.

Snow Depth

Station Depth Elevation

Earthquake Activity

City Distance Mag. Time & Date
Minimum magnitude displayed is 2.5.

Coastal Water Temperatures

Place Temperature

Stations

Nearby Weather Stations

Station Location Temp. Windchill Dew Point Humidity Wind Precip. Elev Updated Type